Time;durP1;ratioP1;P1;durP2;ratioP2;P2;SDS_P1;SDS_P2;PMS_P1;PMS_P2;Temp;Humidity;BMP_temperature;BMP_pressure;BME280_temperature;BME280_humidity;BME280_pressure;Samples;Min_cycle;Max_cycle;Signal;HPM_P1;HPM_P2
2022/07/28 00:01:39;;;;;;;1.13;1.03;;;24.00;30.00;;;;;;5070832;28;21247;-78
2022/07/28 00:04:07;;;;;;;3.33;1.10;;;24.00;31.20;;;;;;5071984;28;20482;-78
2022/07/28 00:06:35;;;;;;;1.77;1.00;;;24.00;30.40;;;;;;5068857;28;20486;-78
2022/07/28 00:09:05;;;;;;;1.33;1.03;;;24.00;29.90;;;;;;5069366;28;20497;-78
2022/07/28 00:11:33;;;;;;;1.30;1.20;;;24.00;29.40;;;;;;5070143;28;20488;-78
2022/07/28 00:14:17;;;;;;;1.67;1.10;;;23.90;28.90;;;;;;5071710;28;20504;-78
2022/07/28 00:16:45;;;;;;;3.23;0.90;;;23.90;29.30;;;;;;5068143;28;20453;-77
2022/07/28 00:19:13;;;;;;;2.57;1.13;;;23.90;29.70;;;;;;5067540;28;20454;-77
2022/07/28 00:21:41;;;;;;;1.80;1.63;;;23.90;29.30;;;;;;5067246;28;20455;-78
2022/07/28 00:24:11;;;;;;;2.00;1.13;;;23.80;29.20;;;;;;5071423;28;20438;-78
2022/07/28 00:26:40;;;;;;;2.73;1.10;;;23.80;29.30;;;;;;5070229;28;20438;-79
2022/07/28 00:29:08;;;;;;;1.30;1.13;;;23.80;29.60;;;;;;5068386;28;20443;-79
2022/07/28 00:31:36;;;;;;;1.57;1.07;;;23.70;28.90;;;;;;5069974;28;20459;-78
2022/07/28 00:34:05;;;;;;;2.20;1.00;;;23.70;42.20;;;;;;5070372;28;20485;-78
2022/07/28 00:36:33;;;;;;;2.73;1.07;;;23.70;29.30;;;;;;5067472;28;20468;-78
2022/07/28 00:39:02;;;;;;;1.87;1.00;;;23.60;28.50;;;;;;5067697;28;20458;-78
2022/07/28 00:41:32;;;;;;;1.20;1.10;;;23.60;28.30;;;;;;5066210;28;20466;-77
2022/07/28 00:44:00;;;;;;;1.90;1.13;;;23.60;27.50;;;;;;5066631;28;20454;-78
2022/07/28 00:46:28;;;;;;;1.10;1.10;;;23.60;27.30;;;;;;5062004;28;20458;-78
2022/07/28 00:48:56;;;;;;;1.93;1.10;;;23.60;27.40;;;;;;5069870;28;20470;-78
2022/07/28 00:51:26;;;;;;;1.00;1.00;;;23.50;28.40;;;;;;5066852;28;20454;-78
2022/07/28 00:53:55;;;;;;;2.80;1.10;;;23.50;26.10;;;;;;5064828;28;20490;-77
2022/07/28 00:56:24;;;;;;;2.20;1.40;;;23.50;26.50;;;;;;5067314;28;20600;-78
2022/07/28 00:58:53;;;;;;;2.77;1.07;;;23.40;26.00;;;;;;5067971;28;20492;-79
2022/07/28 01:01:22;;;;;;;1.63;1.00;;;23.50;27.20;;;;;;5063914;28;20690;-76
2022/07/28 01:03:53;;;;;;;1.00;0.97;;;23.40;25.30;;;;;;5068373;28;20458;-76
2022/07/28 01:06:54;;;;;;;1.20;0.97;;;23.40;25.70;;;;;;5064868;28;20977;-75
2022/07/28 01:09:38;;;;;;;1.67;1.13;;;23.40;24.20;;;;;;5042993;28;20462;-76
2022/07/28 01:12:36;;;;;;;1.53;1.20;;;23.40;25.00;;;;;;5065509;28;20957;-76
2022/07/28 01:15:13;;;;;;;1.37;1.27;;;23.40;24.50;;;;;;5064331;28;21059;-77
2022/07/28 01:17:48;;;;;;;2.33;1.30;;;23.40;24.60;;;;;;5064780;28;20487;-76
2022/07/28 01:20:22;;;;;;;2.17;1.00;;;23.30;25.10;;;;;;5065855;28;20454;-76
2022/07/28 01:23:04;;;;;;;1.70;1.20;;;23.30;24.80;;;;;;5061533;28;20458;-78
2022/07/28 01:25:40;;;;;;;1.50;1.00;;;23.30;24.70;;;;;;5060154;28;20470;-78
2022/07/28 01:28:26;;;;;;;3.67;1.13;;;23.30;24.50;;;;;;5062944;28;20466;-78
2022/07/28 01:30:58;;;;;;;1.20;1.10;;;23.30;24.20;;;;;;5065846;28;20797;-78
2022/07/28 01:33:33;;;;;;;1.60;1.30;;;23.20;24.20;;;;;;5065245;28;20511;-78
2022/07/28 01:36:05;;;;;;;4.77;2.00;;;23.20;24.40;;;;;;5061187;28;20465;-78
2022/07/28 01:38:35;;;;;;;2.20;1.17;;;23.20;23.60;;;;;;5066521;28;20520;-78
2022/07/28 01:41:05;;;;;;;2.93;1.63;;;23.20;23.90;;;;;;5100952;28;20458;-79
2022/07/28 01:43:38;;;;;;;2.73;1.47;;;23.10;24.00;;;;;;5064343;28;20544;-78
2022/07/28 01:46:09;;;;;;;2.10;1.10;;;23.10;24.00;;;;;;5066720;28;20866;-78
2022/07/28 01:48:40;;;;;;;1.37;1.17;;;23.10;23.10;;;;;;5068466;28;20478;-78
2022/07/28 01:51:09;;;;;;;2.70;1.20;;;23.10;23.80;;;;;;5056612;28;20458;-78
2022/07/28 01:53:39;;;;;;;2.47;1.10;;;23.00;23.20;;;;;;5065698;28;20511;-77
2022/07/28 01:56:08;;;;;;;1.27;1.17;;;23.00;23.30;;;;;;5066800;28;20527;-77
2022/07/28 01:58:38;;;;;;;1.70;1.30;;;23.00;22.90;;;;;;5066862;28;20482;-77
2022/07/28 02:01:11;;;;;;;1.37;1.20;;;23.00;22.50;;;;;;5065173;28;20458;-78
2022/07/28 02:03:43;;;;;;;1.30;1.00;;;22.90;22.00;;;;;;5064202;28;20458;-77
2022/07/28 02:06:13;;;;;;;1.57;1.40;;;22.90;22.30;;;;;;5063427;28;20451;-77
2022/07/28 02:08:44;;;;;;;0.90;0.90;;;22.80;22.10;;;;;;5066000;28;20629;-78
2022/07/28 02:13:58;;;;;;;1.87;1.17;;;22.80;33.80;;;;;;5066190;28;20537;-77
2022/07/28 02:16:29;;;;;;;2.47;1.20;;;22.80;22.30;;;;;;5066702;28;20553;-77
2022/07/28 02:18:59;;;;;;;1.10;0.93;;;22.80;21.20;;;;;;5067808;28;20556;-77
2022/07/28 02:21:31;;;;;;;1.10;1.00;;;22.70;22.00;;;;;;5066791;28;20443;-77
2022/07/28 02:24:05;;;;;;;1.67;1.10;;;22.70;21.20;;;;;;5066369;28;20454;-77
2022/07/28 02:26:37;;;;;;;2.13;1.20;;;22.70;21.80;;;;;;5069292;28;20841;-78
2022/07/28 02:29:08;;;;;;;1.20;1.10;;;22.70;33.30;;;;;;5066694;28;20451;-77
2022/07/28 02:32:06;;;;;;;2.57;1.23;;;22.70;21.90;;;;;;5065526;28;20455;-77
2022/07/28 02:34:58;;;;;;;1.67;1.13;;;22.70;21.90;;;;;;5074265;28;21074;-78
2022/07/28 02:37:27;;;;;;;1.90;1.20;;;22.70;21.00;;;;;;5066145;28;20551;-78
2022/07/28 02:39:57;;;;;;;1.30;1.20;;;22.70;21.20;;;;;;5068711;28;20905;-78
2022/07/28 02:42:33;;;;;;;2.40;1.10;;;22.70;22.90;;;;;;5067978;28;20442;-77
2022/07/28 02:45:04;;;;;;;2.67;1.17;;;22.70;21.10;;;;;;5066494;28;20460;-78
2022/07/28 02:47:41;;;;;;;1.83;1.30;;;22.60;21.50;;;;;;5066483;28;20485;-77
2022/07/28 02:50:14;;;;;;;2.70;1.30;;;22.60;21.30;;;;;;5066800;28;20454;-78
2022/07/28 02:52:45;;;;;;;1.23;1.13;;;22.60;21.20;;;;;;5063174;28;20447;-77
2022/07/28 02:55:15;;;;;;;1.37;1.20;;;22.50;21.90;;;;;;5062304;28;20473;-77
2022/07/28 02:57:45;;;;;;;1.60;1.27;;;22.50;20.50;;;;;;5068268;28;20903;-77
2022/07/28 03:00:14;;;;;;;1.50;1.13;;;22.50;20.60;;;;;;5066206;28;20461;-77
2022/07/28 03:02:45;;;;;;;1.70;1.07;;;22.50;21.10;;;;;;5069735;28;20458;-78
2022/07/28 03:05:15;;;;;;;2.90;1.30;;;22.40;21.20;;;;;;5067425;28;20462;-78
2022/07/28 03:07:43;;;;;;;1.30;1.20;;;22.50;21.00;;;;;;5099448;28;20600;-77
2022/07/28 03:10:20;;;;;;;1.30;1.20;;;22.40;21.60;;;;;;5068582;28;20472;-77
2022/07/28 03:13:02;;;;;;;1.63;1.27;;;22.40;20.40;;;;;;5070936;28;21275;-78
2022/07/28 03:15:30;;;;;;;1.83;1.00;;;22.40;20.30;;;;;;5070458;28;20473;-77
2022/07/28 03:18:01;;;;;;;2.53;1.30;;;22.40;20.60;;;;;;5068858;28;20478;-78
2022/07/28 03:20:29;;;;;;;3.43;1.37;;;22.40;19.90;;;;;;5072101;28;20442;-78
2022/07/28 03:22:58;;;;;;;3.20;1.10;;;22.40;21.80;;;;;;5072129;28;20528;-79
2022/07/28 03:25:31;;;;;;;1.37;1.20;;;22.30;20.20;;;;;;5067734;28;20482;-78
2022/07/28 03:28:01;;;;;;;1.70;1.07;;;22.30;19.60;;;;;;5072293;28;20474;-77
2022/07/28 03:30:34;;;;;;;2.53;1.50;;;22.20;19.60;;;;;;5069686;28;20457;-78
2022/07/28 03:33:04;;;;;;;2.03;1.20;;;22.20;19.10;;;;;;5069976;28;20507;-78
2022/07/28 03:35:34;;;;;;;2.13;1.10;;;22.10;19.20;;;;;;5068488;28;20555;-78
2022/07/28 03:38:13;;;;;;;3.73;1.27;;;22.10;29.60;;;;;;5068267;28;20789;-78
2022/07/28 03:40:46;;;;;;;2.53;1.20;;;22.10;19.40;;;;;;5068221;28;20533;-78
2022/07/28 03:43:16;;;;;;;2.90;1.10;;;22.10;18.80;;;;;;5072070;28;20497;-78
2022/07/28 03:45:46;;;;;;;2.63;1.17;;;22.10;19.20;;;;;;5070705;28;20446;-78
2022/07/28 03:48:16;;;;;;;1.40;1.20;;;22.10;19.10;;;;;;5071741;28;20472;-78
2022/07/28 03:50:44;;;;;;;1.70;1.20;;;22.10;20.90;;;;;;5101209;28;20462;-79
2022/07/28 03:53:19;;;;;;;1.40;1.10;;;22.10;20.80;;;;;;5066818;28;20473;-78
2022/07/28 03:55:49;;;;;;;2.27;1.30;;;22.10;19.50;;;;;;5063740;28;21079;-78
2022/07/28 03:58:18;;;;;;;1.63;0.90;;;22.10;19.60;;;;;;5068245;28;20520;-78
2022/07/28 04:00:46;;;;;;;1.20;1.10;;;22.10;19.40;;;;;;5064973;28;20458;-78
2022/07/28 04:03:17;;;;;;;2.57;1.50;;;22.10;20.60;;;;;;5060393;28;20467;-78
2022/07/28 04:06:05;;;;;;;1.40;1.10;;;22.00;19.60;;;;;;5065056;28;20551;-78
2022/07/28 04:08:33;;;;;;;1.80;1.27;;;22.00;19.60;;;;;;5064391;28;20462;-79
2022/07/28 04:11:02;;;;;;;1.53;1.30;;;22.00;20.40;;;;;;5065156;28;20454;-79
2022/07/28 04:13:31;;;;;;;1.73;1.30;;;21.90;19.50;;;;;;5069231;28;20458;-79
2022/07/28 04:15:59;;;;;;;1.50;1.30;;;21.90;20.10;;;;;;5067008;28;20820;-77
2022/07/28 04:18:29;;;;;;;2.30;1.20;;;21.90;19.90;;;;;;5068128;28;20470;-76
2022/07/28 04:20:57;;;;;;;1.93;1.10;;;21.90;18.70;;;;;;5069710;28;20455;-78
2022/07/28 04:23:25;;;;;;;2.10;1.10;;;21.90;20.70;;;;;;5070585;28;20461;-78
2022/07/28 04:25:54;;;;;;;1.73;1.20;;;21.90;19.20;;;;;;5065791;28;20490;-78
2022/07/28 04:28:23;;;;;;;1.20;1.10;;;21.90;20.10;;;;;;5067760;28;20471;-78
2022/07/28 04:30:51;;;;;;;5.23;1.60;;;21.90;19.20;;;;;;5066334;28;20454;-78
2022/07/28 04:33:19;;;;;;;2.40;1.20;;;21.90;19.40;;;;;;5070641;28;20533;-79
2022/07/28 04:35:51;;;;;;;3.90;1.27;;;21.90;20.30;;;;;;5065724;28;20561;-79
2022/07/28 04:38:19;;;;;;;3.23;1.40;;;21.90;18.60;;;;;;5070887;28;21265;-78
2022/07/28 04:40:48;;;;;;;2.30;1.20;;;21.90;20.90;;;;;;5066904;28;20464;-78
2022/07/28 04:43:16;;;;;;;1.00;1.00;;;21.90;19.40;;;;;;5065958;28;20922;-77
2022/07/28 04:45:45;;;;;;;1.80;1.37;;;21.90;20.70;;;;;;5069066;28;20482;-77
2022/07/28 04:48:22;;;;;;;2.50;1.10;;;21.90;19.80;;;;;;5067444;28;20524;-78
2022/07/28 04:50:52;;;;;;;2.80;1.40;;;21.80;18.30;;;;;;5065660;28;20546;-79
2022/07/28 04:53:21;;;;;;;1.63;1.27;;;21.80;19.70;;;;;;5098695;28;20479;-79
2022/07/28 04:55:51;;;;;;;2.60;1.20;;;21.80;20.10;;;;;;5064156;28;20502;-77
2022/07/28 04:58:22;;;;;;;3.63;1.20;;;21.80;20.70;;;;;;5068264;28;20466;-75
2022/07/28 05:00:51;;;;;;;2.17;1.20;;;21.90;20.40;;;;;;5066082;28;20794;-75
2022/07/28 05:03:20;;;;;;;2.27;1.30;;;21.90;21.30;;;;;;5061661;28;20443;-74
2022/07/28 05:05:48;;;;;;;1.93;1.20;;;21.90;19.90;;;;;;5066664;28;20873;-75
2022/07/28 05:08:24;;;;;;;4.17;1.30;;;21.90;21.40;;;;;;5068904;28;20481;-74
2022/07/28 05:10:54;;;;;;;1.67;1.50;;;21.90;22.30;;;;;;5069245;28;20450;-75
2022/07/28 05:13:23;;;;;;;2.20;1.40;;;21.90;20.70;;;;;;5067541;28;20446;-75
2022/07/28 05:15:55;;;;;;;2.73;1.43;;;21.90;22.00;;;;;;5063269;28;21082;-75
2022/07/28 05:18:24;;;;;;;1.20;1.10;;;22.00;22.60;;;;;;5068674;28;20474;-75
2022/07/28 05:20:52;;;;;;;1.53;1.20;;;22.00;22.80;;;;;;5068833;28;20471;-75
2022/07/28 05:23:20;;;;;;;1.30;1.10;;;22.00;22.60;;;;;;5068927;28;20439;-74
2022/07/28 05:25:49;;;;;;;3.10;1.60;;;22.00;23.80;;;;;;5063777;28;20462;-74
2022/07/28 05:28:18;;;;;;;1.73;1.20;;;22.00;22.20;;;;;;5063281;28;20508;-75
2022/07/28 05:30:46;;;;;;;1.63;1.20;;;22.00;23.40;;;;;;5068567;28;20527;-75
2022/07/28 05:33:15;;;;;;;2.03;1.10;;;22.00;24.10;;;;;;5067178;28;20462;-75
2022/07/28 05:35:44;;;;;;;3.43;1.33;;;22.00;23.90;;;;;;5067627;28;20550;-75
2022/07/28 05:38:13;;;;;;;4.50;1.40;;;22.10;23.50;;;;;;5068690;28;20564;-75
2022/07/28 05:40:41;;;;;;;1.37;1.27;;;22.10;23.20;;;;;;5065433;28;20481;-73
2022/07/28 05:43:10;;;;;;;1.70;1.50;;;22.10;24.90;;;;;;5064155;28;20460;-75
2022/07/28 05:45:38;;;;;;;2.33;1.20;;;22.20;25.40;;;;;;5062321;28;20303;-77
2022/07/28 05:48:07;;;;;;;1.93;1.40;;;22.20;25.70;;;;;;5055364;28;20921;-76
2022/07/28 05:50:35;;;;;;;2.83;1.20;;;22.20;25.40;;;;;;5064795;28;21118;-75
2022/07/28 05:53:03;;;;;;;1.63;1.30;;;22.20;26.50;;;;;;5063601;28;20458;-74
2022/07/28 05:55:31;;;;;;;1.90;1.37;;;22.20;26.60;;;;;;5065321;28;20557;-75
2022/07/28 05:58:00;;;;;;;1.47;1.27;;;22.20;26.70;;;;;;5070997;28;20844;-75
2022/07/28 06:00:31;;;;;;;2.77;1.30;;;22.20;27.40;;;;;;5072455;28;20440;-74
2022/07/28 06:03:00;;;;;;;4.50;1.40;;;22.30;27.40;;;;;;5065174;28;20443;-75
2022/07/28 06:05:30;;;;;;;2.10;1.50;;;22.30;27.80;;;;;;5061294;28;20458;-76
2022/07/28 06:07:59;;;;;;;1.40;1.30;;;22.40;28.20;;;;;;5064726;28;20463;-76
2022/07/28 06:10:57;;;;;;;2.80;1.67;;;22.40;28.80;;;;;;5072285;28;20470;-76
2022/07/28 06:13:19;;;;;;;2.20;1.40;;;22.40;29.10;;;;;;5064431;28;20446;-75
2022/07/28 06:15:50;;;;;;;1.60;1.40;;;22.50;29.90;;;;;;5065570;28;20385;-75
2022/07/28 06:18:18;;;;;;;2.47;1.53;;;22.50;31.00;;;;;;5069270;28;20224;-75
2022/07/28 06:20:47;;;;;;;1.57;1.47;;;22.60;32.30;;;;;;5068171;28;20476;-76
2022/07/28 06:23:19;;;;;;;1.80;1.70;;;22.70;34.90;;;;;;5071306;28;20452;-75
2022/07/28 06:25:47;;;;;;;1.53;1.40;;;22.70;34.20;;;;;;5066349;28;20446;-76
2022/07/28 06:28:17;;;;;;;2.53;1.80;;;22.80;35.20;;;;;;5074566;28;20466;-76
2022/07/28 06:30:47;;;;;;;2.00;1.80;;;22.90;35.70;;;;;;5065445;28;20529;-77
2022/07/28 06:33:18;;;;;;;2.20;1.80;;;23.00;38.10;;;;;;5066926;28;20473;-76
2022/07/28 06:35:46;;;;;;;3.10;1.80;;;23.00;38.60;;;;;;5065927;28;20449;-75
2022/07/28 06:38:19;;;;;;;1.67;1.57;;;23.10;40.60;;;;;;5066321;28;20509;-75
2022/07/28 06:40:47;;;;;;;2.83;1.90;;;23.10;40.80;;;;;;5061421;28;20451;-76
2022/07/28 06:43:15;;;;;;;3.07;2.77;;;23.10;41.30;;;;;;5067174;28;20451;-77
2022/07/28 06:45:44;;;;;;;2.23;2.03;;;23.20;41.70;;;;;;5063822;28;20942;-76
2022/07/28 06:48:14;;;;;;;2.87;2.20;;;23.20;41.70;;;;;;5065363;28;20523;-75
2022/07/28 06:50:43;;;;;;;2.47;2.10;;;23.20;44.70;;;;;;5065333;28;20458;-75
2022/07/28 06:53:11;;;;;;;2.50;2.30;;;23.30;46.70;;;;;;5068285;28;20451;-76
2022/07/28 06:55:39;;;;;;;2.83;2.27;;;23.50;48.30;;;;;;5062267;28;20451;-75
2022/07/28 06:58:08;;;;;;;3.73;2.97;;;23.60;50.50;;;;;;5070397;28;20485;-76
2022/07/28 07:00:36;;;;;;;3.37;2.67;;;23.80;51.00;;;;;;5063021;28;20450;-76
2022/07/28 07:03:04;;;;;;;2.87;2.60;;;23.90;51.00;;;;;;5068301;28;20462;-75
2022/07/28 07:05:36;;;;;;;3.33;2.43;;;24.10;53.50;;;;;;5061033;28;20945;-75
2022/07/28 07:08:06;;;;;;;2.83;2.57;;;24.20;53.20;;;;;;5064978;28;21211;-75
2022/07/28 07:10:35;;;;;;;2.90;2.60;;;24.30;55.40;;;;;;5061795;28;20896;-76
2022/07/28 07:13:03;;;;;;;2.47;2.27;;;24.40;55.10;;;;;;5069038;28;20450;-75
2022/07/28 07:15:31;;;;;;;3.00;2.80;;;24.40;57.80;;;;;;5061711;28;21374;-75
2022/07/28 07:18:02;;;;;;;5.13;3.53;;;24.50;59.20;;;;;;5066636;28;20474;-75
2022/07/28 07:20:30;;;;;;;2.70;2.53;;;24.60;58.50;;;;;;5068191;28;20454;-75
2022/07/28 07:22:58;;;;;;;2.90;2.60;;;24.60;60.50;;;;;;5066821;28;20470;-75
2022/07/28 07:25:27;;;;;;;3.00;2.80;;;24.70;62.70;;;;;;5064978;28;20463;-75
2022/07/28 07:27:55;;;;;;;3.00;2.70;;;24.70;62.60;;;;;;5062643;28;20466;-76
2022/07/28 07:30:24;;;;;;;5.33;3.00;;;24.80;66.50;;;;;;5061656;28;20454;-77
2022/07/28 07:32:52;;;;;;;3.23;3.03;;;24.80;66.80;;;;;;5068265;28;20458;-76
2022/07/28 07:35:20;;;;;;;3.50;3.00;;;24.90;66.40;;;;;;5065822;28;20443;-76
2022/07/28 07:37:48;;;;;;;3.00;2.80;;;24.90;66.00;;;;;;5064916;28;20993;-76
2022/07/28 07:40:16;;;;;;;3.03;2.83;;;24.90;65.60;;;;;;5068515;28;20434;-76
2022/07/28 07:42:46;;;;;;;4.00;3.30;;;24.90;65.50;;;;;;5072046;28;20809;-76
2022/07/28 07:45:14;;;;;;;3.50;3.20;;;24.90;67.90;;;;;;5065622;28;20454;-76
2022/07/28 07:47:42;;;;;;;3.40;3.10;;;24.90;69.60;;;;;;5067819;28;20870;-76
2022/07/28 07:50:10;;;;;;;3.33;3.10;;;25.00;68.00;;;;;;5065935;28;20550;-76
2022/07/28 07:52:38;;;;;;;3.30;3.00;;;25.00;68.10;;;;;;5069646;28;20449;-76
2022/07/28 07:55:07;;;;;;;3.50;3.30;;;25.00;88.30;;;;;;5070487;28;20949;-76
2022/07/28 07:57:36;;;;;;;2.97;2.67;;;25.00;67.80;;;;;;5065568;28;20474;-79
2022/07/28 08:00:06;;;;;;;3.70;3.50;;;25.10;75.40;;;;;;5071205;28;20447;-75
2022/07/28 08:02:55;;;;;;;3.50;3.30;;;25.10;70.80;;;;;;5063800;28;21146;-75
2022/07/28 08:05:23;;;;;;;4.77;4.27;;;25.10;70.90;;;;;;5070351;28;20454;-75
2022/07/28 08:08:03;;;;;;;3.43;3.23;;;25.10;71.60;;;;;;5067688;28;20470;-76
2022/07/28 08:10:32;;;;;;;4.50;3.10;;;25.20;69.60;;;;;;5063120;28;20451;-77
2022/07/28 08:13:00;;;;;;;3.30;3.00;;;25.20;90.20;;;;;;5066138;28;20965;-77
2022/07/28 08:15:30;;;;;;;4.90;3.40;;;25.20;71.00;;;;;;5065473;28;20453;-75
2022/07/28 08:17:58;;;;;;;3.03;2.73;;;25.20;69.90;;;;;;5065227;28;20519;-75
2022/07/28 08:20:27;;;;;;;3.77;3.40;;;25.20;70.60;;;;;;5070810;28;20449;-76
2022/07/28 08:22:57;;;;;;;3.67;3.33;;;25.30;71.80;;;;;;5072240;28;20454;-75
2022/07/28 08:25:26;;;;;;;3.50;3.20;;;25.20;71.00;;;;;;5063293;28;22873;-75
2022/07/28 08:27:54;;;;;;;4.97;3.87;;;25.30;71.00;;;;;;5065846;28;20474;-77
2022/07/28 08:30:22;;;;;;;3.40;3.10;;;25.30;73.40;;;;;;5068049;28;20498;-77
2022/07/28 08:33:01;;;;;;;5.80;5.20;;;25.30;75.40;;;;;;5066013;28;20442;-76
2022/07/28 08:35:29;;;;;;;4.27;3.87;;;25.30;75.80;;;;;;5070196;28;20457;-76
2022/07/28 08:38:03;;;;;;;3.53;3.00;;;25.30;75.00;;;;;;5068030;28;20483;-76
2022/07/28 08:40:32;;;;;;;7.17;3.70;;;25.40;75.30;;;;;;5068685;28;20445;-75
2022/07/28 08:43:07;;;;;;;4.00;3.70;;;25.40;76.60;;;;;;5065335;28;20454;-76
2022/07/28 08:45:36;;;;;;;4.13;3.73;;;25.50;93.00;;;;;;5066012;28;20466;-76
2022/07/28 08:48:07;;;;;;;5.20;3.40;;;25.60;78.70;;;;;;5067926;28;21006;-76
2022/07/28 08:50:38;;;;;;;3.17;2.97;;;25.60;78.00;;;;;;5066309;28;21027;-76
2022/07/28 08:53:07;;;;;;;4.23;3.47;;;25.70;77.80;;;;;;5063775;28;20450;-75
2022/07/28 08:55:36;;;;;;;3.93;3.53;;;25.60;79.30;;;;;;5069489;28;20457;-75
2022/07/28 08:58:04;;;;;;;3.77;3.43;;;25.70;81.10;;;;;;5070379;28;20490;-78
2022/07/28 09:00:33;;;;;;;3.77;3.57;;;25.90;82.40;;;;;;5071837;28;20466;-76
2022/07/28 09:03:03;;;;;;;4.37;2.97;;;25.70;80.50;;;;;;5068271;28;20520;-76
2022/07/28 09:05:33;;;;;;;3.37;3.17;;;25.90;83.40;;;;;;5068034;28;21209;-75
2022/07/28 09:08:02;;;;;;;3.03;2.87;;;25.90;81.60;;;;;;5069828;28;20477;-75
2022/07/28 09:10:31;;;;;;;3.20;3.00;;;25.90;81.20;;;;;;5062196;28;20476;-75
2022/07/28 09:12:59;;;;;;;4.60;4.30;;;25.90;84.50;;;;;;5065124;28;20809;-75
2022/07/28 09:15:27;;;;;;;5.27;4.73;;;26.00;86.70;;;;;;5063084;28;20442;-77
2022/07/28 09:17:55;;;;;;;4.20;3.90;;;26.00;84.80;;;;;;5066206;28;20516;-77
2022/07/28 09:20:24;;;;;;;4.00;3.70;;;26.00;82.40;;;;;;5063695;28;20492;-76
2022/07/28 09:22:58;;;;;;;3.70;3.40;;;25.90;84.00;;;;;;5066252;28;20543;-75
2022/07/28 09:25:26;;;;;;;3.17;2.90;;;26.00;85.90;;;;;;5065886;28;20465;-75
2022/07/28 09:27:55;;;;;;;3.57;3.30;;;26.00;85.60;;;;;;5066114;28;20482;-76
2022/07/28 09:30:31;;;;;;;3.27;3.07;;;26.10;84.80;;;;;;5066346;28;20457;-76
2022/07/28 09:33:13;;;;;;;4.40;4.00;;;26.10;85.80;;;;;;5100348;27;21073;-75
2022/07/28 09:36:02;;;;;;;4.00;3.70;;;26.20;86.00;;;;;;5065560;28;20504;-76
2022/07/28 09:38:40;;;;;;;3.23;2.90;;;26.20;87.60;;;;;;5066641;28;20474;-77
2022/07/28 09:41:08;;;;;;;3.33;3.10;;;26.30;87.50;;;;;;5067533;28;20509;-75
2022/07/28 09:43:38;;;;;;;4.00;3.60;;;26.30;88.10;;;;;;5068454;28;20462;-76
2022/07/28 09:46:08;;;;;;;3.77;3.37;;;26.40;89.40;;;;;;5063687;28;20455;-76
2022/07/28 09:48:51;;;;;;;4.13;3.73;;;26.50;89.40;;;;;;5067315;28;20466;-76
2022/07/28 09:51:21;;;;;;;4.13;3.83;;;26.50;88.70;;;;;;5066699;28;20454;-76
2022/07/28 09:53:51;;;;;;;4.80;3.17;;;26.50;89.60;;;;;;5076648;28;20451;-76
2022/07/28 09:56:22;;;;;;;3.50;3.20;;;26.50;87.20;;;;;;5063788;28;20450;-76
2022/07/28 09:58:54;;;;;;;4.67;4.27;;;26.50;88.70;;;;;;5066486;28;20466;-76
2022/07/28 10:01:25;;;;;;;4.93;3.97;;;26.50;88.10;;;;;;5065941;28;20470;-76
2022/07/28 10:04:02;;;;;;;4.53;4.13;;;26.50;88.40;;;;;;5064458;28;20503;-76
2022/07/28 10:06:33;;;;;;;4.33;4.03;;;26.60;90.00;;;;;;5059791;28;20534;-77
2022/07/28 10:09:04;;;;;;;3.80;3.50;;;26.50;89.70;;;;;;5067372;28;21173;-76
2022/07/28 10:11:32;;;;;;;4.73;3.23;;;26.50;86.50;;;;;;5069573;28;20446;-76
2022/07/28 10:14:08;;;;;;;3.40;3.10;;;26.60;89.00;;;;;;5064551;28;20495;-77
2022/07/28 10:16:43;;;;;;;3.97;3.77;;;26.70;90.60;;;;;;5064255;28;20451;-76
2022/07/28 10:19:11;;;;;;;3.97;3.60;;;26.70;90.40;;;;;;5064273;28;20480;-76
2022/07/28 10:21:44;;;;;;;3.40;3.20;;;26.80;91.10;;;;;;5060913;28;20447;-76
2022/07/28 10:24:20;;;;;;;2.60;2.40;;;26.80;90.60;;;;;;5063237;28;20767;-75
2022/07/28 10:26:51;;;;;;;3.47;3.27;;;26.90;90.80;;;;;;5062405;28;20500;-76
2022/07/28 10:29:21;;;;;;;3.20;2.80;;;26.90;89.30;;;;;;5064327;28;20446;-76
2022/07/28 10:31:53;;;;;;;3.37;3.17;;;26.90;91.00;;;;;;5060920;28;21243;-77
2022/07/28 10:34:22;;;;;;;4.07;3.77;;;26.90;90.40;;;;;;5092871;28;20508;-76
2022/07/28 10:36:54;;;;;;;3.97;3.67;;;26.90;89.10;;;;;;5061104;28;20450;-77
2022/07/28 10:39:28;;;;;;;3.83;3.53;;;26.90;88.10;;;;;;5067090;28;20471;-77
2022/07/28 10:41:57;;;;;;;3.10;2.90;;;26.90;89.70;;;;;;5068065;28;20454;-77
2022/07/28 10:44:27;;;;;;;2.93;2.73;;;26.90;89.80;;;;;;5067707;28;20463;-76
2022/07/28 10:46:56;;;;;;;3.90;3.60;;;26.90;90.70;;;;;;5067861;28;20516;-76
2022/07/28 10:49:26;;;;;;;3.50;3.20;;;27.00;92.30;;;;;;5073133;28;20468;-76
2022/07/28 10:52:00;;;;;;;3.70;3.40;;;27.00;90.40;;;;;;5062441;28;20458;-75
2022/07/28 10:54:46;;;;;;;3.90;3.60;;;27.10;90.40;;;;;;5061779;28;20479;-76
2022/07/28 10:57:16;;;;;;;4.33;4.03;;;27.10;90.30;;;;;;5059874;28;20474;-77
2022/07/28 11:00:00;;;;;;;2.60;2.43;;;27.10;90.10;;;;;;5065513;28;20947;-76
2022/07/28 11:02:49;;;;;;;3.00;2.70;;;27.10;89.90;;;;;;5062392;28;20442;-76
2022/07/28 11:05:35;;;;;;;3.70;3.50;;;27.10;86.90;;;;;;5060560;28;20458;-78
2022/07/28 11:08:06;;;;;;;3.00;2.80;;;27.10;87.80;;;;;;5062618;28;21278;-76
2022/07/28 11:10:47;;;;;;;3.17;2.87;;;27.10;87.20;;;;;;5068411;28;20450;-77
2022/07/28 11:13:30;;;;;;;3.60;3.40;;;27.10;89.90;;;;;;5064662;28;20464;-77
2022/07/28 11:16:20;;;;;;;3.37;3.07;;;27.20;89.90;;;;;;5064428;28;20451;-77
2022/07/28 11:19:06;;;;;;;3.40;3.20;;;27.10;89.70;;;;;;5063645;28;20930;-77
2022/07/28 11:21:35;;;;;;;3.43;3.23;;;27.20;88.60;;;;;;5067069;28;20446;-77
2022/07/28 11:24:10;;;;;;;10.67;8.77;;;27.30;87.70;;;;;;5070254;28;20453;-76
2022/07/28 11:26:46;;;;;;;124.93;81.07;;;27.30;88.90;;;;;;5066552;28;20484;-76
2022/07/28 11:29:18;;;;;;;361.17;245.03;;;27.30;90.50;;;;;;5068422;28;20435;-76
2022/07/28 11:32:03;;;;;;;272.60;188.77;;;27.30;90.20;;;;;;5068861;28;20457;-77
2022/07/28 11:35:07;;;;;;;113.30;78.93;;;27.30;90.00;;;;;;5068226;28;20451;-77
2022/07/28 11:38:11;;;;;;;194.70;134.93;;;27.40;87.70;;;;;;5060729;28;20494;-76
2022/07/28 11:40:41;;;;;;;264.47;185.70;;;27.40;90.50;;;;;;5070452;28;20475;-77
2022/07/28 11:43:33;;;;;;;236.97;164.00;;;27.40;91.70;;;;;;5065686;28;20458;-77
2022/07/28 11:46:24;;;;;;;276.13;186.40;;;27.40;91.60;;;;;;5070236;28;20480;-78
2022/07/28 11:49:15;;;;;;;203.47;133.50;;;27.40;91.90;;;;;;5066720;28;20482;-77
2022/07/28 11:52:15;;;;;;;130.63;97.73;;;27.50;90.80;;;;;;5064827;28;20462;-79
2022/07/28 11:54:49;;;;;;;51.23;38.67;;;27.50;91.10;;;;;;5067192;28;20558;-79
2022/07/28 11:57:20;;;;;;;74.80;57.67;;;27.50;90.60;;;;;;5068259;28;20890;-78
2022/07/28 11:59:53;;;;;;;105.53;77.83;;;27.60;91.30;;;;;;5059943;28;20625;-76
2022/07/28 12:02:24;;;;;;;154.43;115.30;;;27.60;91.70;;;;;;5067563;28;20994;-76
2022/07/28 12:05:16;;;;;;;136.80;96.63;;;27.70;91.30;;;;;;5059974;28;20467;-78
2022/07/28 12:07:48;;;;;;;146.27;105.73;;;27.70;92.00;;;;;;5053564;28;20478;-78
2022/07/28 12:10:34;;;;;;;85.23;62.80;;;27.60;92.60;;;;;;5062341;28;20898;-77
2022/07/28 12:13:27;;;;;;;34.50;29.43;;;27.70;92.10;;;;;;5067713;28;20458;-80
2022/07/28 12:15:57;;;;;;;33.40;25.83;;;27.70;90.40;;;;;;5069212;28;20484;-82
2022/07/28 12:18:25;;;;;;;31.00;24.37;;;27.80;90.70;;;;;;5073306;28;20469;-79
2022/07/28 12:20:54;;;;;;;52.33;43.30;;;27.80;91.80;;;;;;5065535;28;20474;-82
2022/07/28 12:23:30;;;;;;;52.43;38.67;;;27.80;90.80;;;;;;5063318;28;20451;-81
2022/07/28 12:26:11;;;;;;;55.20;42.60;;;27.80;90.40;;;;;;5067317;28;20476;-80
2022/07/28 12:28:39;;;;;;;60.53;47.53;;;27.80;92.00;;;;;;5062988;28;20530;-80
2022/07/28 12:31:12;;;;;;;89.70;62.90;;;27.80;91.40;;;;;;5067286;28;20442;-79
2022/07/28 12:33:40;;;;;;;57.57;47.47;;;27.80;91.00;;;;;;5067477;28;20457;-80
2022/07/28 12:36:09;;;;;;;40.33;31.23;;;27.80;92.00;;;;;;5062660;28;20442;-80
2022/07/28 12:38:37;;;;;;;51.30;39.63;;;27.80;90.40;;;;;;5070671;28;20485;-78
2022/07/28 12:41:14;;;;;;;46.70;39.10;;;27.80;92.40;;;;;;5065116;28;20467;-78
2022/07/28 12:43:50;;;;;;;48.50;39.33;;;27.90;90.90;;;;;;5065703;28;20465;-78
2022/07/28 12:46:24;;;;;;;18.10;13.57;;;27.90;90.50;;;;;;5069631;28;20492;-79
2022/07/28 12:48:56;;;;;;;14.23;12.43;;;28.00;90.10;;;;;;5058153;28;20498;-78
2022/07/28 12:51:34;;;;;;;10.60;8.80;;;28.00;88.10;;;;;;5070700;28;20950;-79
2022/07/28 12:54:05;;;;;;;40.10;31.10;;;28.10;88.20;;;;;;5064481;28;20442;-78
2022/07/28 12:56:44;;;;;;;5.40;4.90;;;28.10;90.80;;;;;;5060560;28;20459;-78
2022/07/28 12:59:13;;;;;;;18.83;14.20;;;28.00;82.80;;;;;;5064142;28;20547;-80
2022/07/28 13:01:50;;;;;;;8.30;5.00;;;28.10;83.90;;;;;;5065931;28;20495;-77
2022/07/28 13:04:37;;;;;;;10.67;8.97;;;28.10;83.20;;;;;;5064156;28;20462;-80
2022/07/28 13:07:08;;;;;;;12.60;10.10;;;28.20;87.00;;;;;;5062787;28;20471;-78
2022/07/28 13:09:40;;;;;;;17.37;15.17;;;28.30;85.60;;;;;;5065618;28;20454;-79
2022/07/28 13:12:16;;;;;;;23.70;20.90;;;28.30;88.40;;;;;;5062570;28;20958;-79